sensor_id;sensor_type;location;lat;lon;timestamp;P1;durP1;ratioP1;P2;durP2;ratioP2
63965;SDS011;50151;52.030;5.350;2022-11-15T10:45:24;10.82;;;2.75;;
63965;SDS011;50151;52.030;5.350;2022-11-15T10:47:53;9.73;;;2.85;;
63965;SDS011;50151;52.030;5.350;2022-11-15T10:50:30;4.63;;;2.38;;
63965;SDS011;50151;52.030;5.350;2022-11-15T10:52:58;4.07;;;2.38;;
63965;SDS011;50151;52.030;5.350;2022-11-15T10:55:29;4.97;;;2.00;;
63965;SDS011;50151;52.030;5.350;2022-11-15T10:58:04;5.47;;;2.78;;
63965;SDS011;50151;52.030;5.350;2022-11-15T11:00:44;4.00;;;2.50;;
63965;SDS011;50151;52.030;5.350;2022-11-15T11:03:26;4.22;;;2.50;;
63965;SDS011;50151;52.030;5.350;2022-11-15T11:08:34;4.57;;;2.97;;
63965;SDS011;50151;52.030;5.350;2022-11-15T11:11:02;5.50;;;3.08;;
63965;SDS011;50151;52.030;5.350;2022-11-15T11:13:34;5.40;;;2.10;;
63965;SDS011;50151;52.030;5.350;2022-11-15T11:18:52;6.40;;;1.55;;
63965;SDS011;50151;52.030;5.350;2022-11-15T11:30:38;6.15;;;1.25;;
63965;SDS011;50151;52.030;5.350;2022-11-15T11:33:17;4.10;;;1.05;;
63965;SDS011;50151;52.030;5.350;2022-11-15T11:52:24;1.40;;;1.10;;
63965;SDS011;50151;52.030;5.350;2022-11-15T11:55:01;3.92;;;1.10;;
63965;SDS011;50151;52.030;5.350;2022-11-15T12:00:27;5.10;;;1.13;;
63965;SDS011;50151;52.030;5.350;2022-11-15T12:05:42;5.53;;;1.20;;
63965;SDS011;50151;52.030;5.350;2022-11-15T12:11:06;5.43;;;0.68;;
63965;SDS011;50151;52.030;5.350;2022-11-15T12:13:46;5.57;;;1.10;;
63965;SDS011;50151;52.030;5.350;2022-11-15T12:16:21;4.22;;;0.93;;
63965;SDS011;50151;52.030;5.350;2022-11-15T12:18:54;6.85;;;0.88;;
63965;SDS011;50151;52.030;5.350;2022-11-15T12:21:39;3.28;;;0.90;;
63965;SDS011;50151;52.030;5.350;2022-11-15T12:24:18;6.28;;;1.00;;
63965;SDS011;50151;52.030;5.350;2022-11-15T12:26:55;6.00;;;1.17;;
63965;SDS011;50151;52.030;5.350;2022-11-15T12:29:33;3.35;;;1.10;;
63965;SDS011;50151;52.030;5.350;2022-11-15T12:32:04;5.65;;;1.13;;
63965;SDS011;50151;52.030;5.350;2022-11-15T12:34:42;2.67;;;1.10;;
63965;SDS011;50151;52.030;5.350;2022-11-15T12:42:39;5.40;;;0.95;;
63965;SDS011;50151;52.030;5.350;2022-11-15T12:58:40;6.15;;;1.30;;
63965;SDS011;50151;52.030;5.350;2022-11-15T13:06:51;10.07;;;1.38;;
63965;SDS011;50151;52.030;5.350;2022-11-15T13:19:53;5.00;;;1.50;;
63965;SDS011;50151;52.030;5.350;2022-11-15T13:22:40;5.30;;;1.25;;
63965;SDS011;50151;52.030;5.350;2022-11-15T13:35:50;7.90;;;1.75;;
63965;SDS011;50151;52.030;5.350;2022-11-15T13:40:53;5.20;;;1.40;;
63965;SDS011;50151;52.030;5.350;2022-11-15T13:43:26;6.80;;;1.85;;
63965;SDS011;50151;52.030;5.350;2022-11-15T13:48:44;7.82;;;1.77;;
63965;SDS011;50151;52.030;5.350;2022-11-15T13:54:29;3.92;;;1.42;;
63965;SDS011;50151;52.030;5.350;2022-11-15T14:01:59;5.10;;;2.00;;
63965;SDS011;50151;52.030;5.350;2022-11-15T14:04:29;3.78;;;1.50;;
63965;SDS011;50151;52.030;5.350;2022-11-15T14:06:59;5.82;;;1.63;;
63965;SDS011;50151;52.030;5.350;2022-11-15T14:09:33;7.32;;;1.65;;
63965;SDS011;50151;52.030;5.350;2022-11-15T14:14:55;7.75;;;1.75;;
63965;SDS011;50151;52.030;5.350;2022-11-15T14:19:55;4.63;;;1.50;;
63965;SDS011;50151;52.030;5.350;2022-11-15T14:22:23;8.98;;;1.58;;
63965;SDS011;50151;52.030;5.350;2022-11-15T14:27:41;6.65;;;1.75;;
63965;SDS011;50151;52.030;5.350;2022-11-15T14:30:14;6.10;;;1.65;;
63965;SDS011;50151;52.030;5.350;2022-11-15T14:32:46;5.47;;;1.40;;
63965;SDS011;50151;52.030;5.350;2022-11-15T14:35:19;6.07;;;1.83;;
63965;SDS011;50151;52.030;5.350;2022-11-15T14:37:48;6.80;;;1.48;;
63965;SDS011;50151;52.030;5.350;2022-11-15T14:40:16;10.13;;;1.60;;
63965;SDS011;50151;52.030;5.350;2022-11-15T14:42:45;5.70;;;1.30;;
63965;SDS011;50151;52.030;5.350;2022-11-15T14:45:14;4.03;;;1.27;;
63965;SDS011;50151;52.030;5.350;2022-11-15T14:47:42;4.03;;;1.45;;
63965;SDS011;50151;52.030;5.350;2022-11-15T14:50:16;4.65;;;1.60;;
63965;SDS011;50151;52.030;5.350;2022-11-15T14:52:45;6.03;;;1.48;;
63965;SDS011;50151;52.030;5.350;2022-11-15T14:55:22;3.45;;;1.23;;
63965;SDS011;50151;52.030;5.350;2022-11-15T14:57:51;3.50;;;1.30;;
63965;SDS011;50151;52.030;5.350;2022-11-15T15:00:21;5.53;;;1.25;;
63965;SDS011;50151;52.030;5.350;2022-11-15T15:02:48;3.05;;;1.50;;
63965;SDS011;50151;52.030;5.350;2022-11-15T15:05:19;4.53;;;1.50;;
63965;SDS011;50151;52.030;5.350;2022-11-15T15:07:51;12.45;;;1.85;;
63965;SDS011;50151;52.030;5.350;2022-11-15T15:10:19;6.57;;;1.17;;
63965;SDS011;50151;52.030;5.350;2022-11-15T15:13:08;6.10;;;1.40;;
63965;SDS011;50151;52.030;5.350;2022-11-15T15:15:40;7.72;;;1.25;;
63965;SDS011;50151;52.030;5.350;2022-11-15T15:18:07;6.32;;;1.17;;
63965;SDS011;50151;52.030;5.350;2022-11-15T15:20:34;2.38;;;1.15;;
63965;SDS011;50151;52.030;5.350;2022-11-15T15:23:03;5.53;;;1.23;;
63965;SDS011;50151;52.030;5.350;2022-11-15T15:25:30;3.20;;;1.13;;
63965;SDS011;50151;52.030;5.350;2022-11-15T15:27:59;5.80;;;1.30;;
63965;SDS011;50151;52.030;5.350;2022-11-15T15:30:27;6.47;;;1.08;;
63965;SDS011;50151;52.030;5.350;2022-11-15T15:32:54;2.88;;;1.10;;
63965;SDS011;50151;52.030;5.350;2022-11-15T15:35:22;3.83;;;1.60;;
63965;SDS011;50151;52.030;5.350;2022-11-15T15:37:49;3.72;;;1.45;;
63965;SDS011;50151;52.030;5.350;2022-11-15T15:40:19;6.60;;;1.13;;
63965;SDS011;50151;52.030;5.350;2022-11-15T15:42:47;6.15;;;1.98;;
63965;SDS011;50151;52.030;5.350;2022-11-15T15:45:15;4.43;;;1.60;;
63965;SDS011;50151;52.030;5.350;2022-11-15T15:47:44;8.75;;;1.60;;
63965;SDS011;50151;52.030;5.350;2022-11-15T15:50:18;6.70;;;1.30;;
63965;SDS011;50151;52.030;5.350;2022-11-15T15:52:51;4.88;;;1.65;;
63965;SDS011;50151;52.030;5.350;2022-11-15T15:55:19;4.13;;;1.08;;
63965;SDS011;50151;52.030;5.350;2022-11-15T15:57:46;5.40;;;1.25;;
63965;SDS011;50151;52.030;5.350;2022-11-15T16:00:13;5.03;;;1.20;;
63965;SDS011;50151;52.030;5.350;2022-11-15T16:02:41;3.05;;;1.10;;
63965;SDS011;50151;52.030;5.350;2022-11-15T16:05:08;2.25;;;1.00;;
63965;SDS011;50151;52.030;5.350;2022-11-15T16:07:36;3.92;;;1.00;;
63965;SDS011;50151;52.030;5.350;2022-11-15T16:10:14;5.13;;;1.58;;
63965;SDS011;50151;52.030;5.350;2022-11-15T16:12:45;5.18;;;1.08;;
63965;SDS011;50151;52.030;5.350;2022-11-15T16:15:12;5.63;;;1.17;;
63965;SDS011;50151;52.030;5.350;2022-11-15T16:17:40;1.48;;;0.88;;
63965;SDS011;50151;52.030;5.350;2022-11-15T16:22:56;5.35;;;1.40;;
63965;SDS011;50151;52.030;5.350;2022-11-15T16:25:23;10.95;;;2.20;;
63965;SDS011;50151;52.030;5.350;2022-11-15T16:27:50;4.97;;;2.00;;
63965;SDS011;50151;52.030;5.350;2022-11-15T16:30:18;5.18;;;1.70;;
63965;SDS011;50151;52.030;5.350;2022-11-15T16:32:46;3.70;;;1.10;;
63965;SDS011;50151;52.030;5.350;2022-11-15T16:35:14;4.20;;;1.30;;
63965;SDS011;50151;52.030;5.350;2022-11-15T16:37:42;4.68;;;1.95;;
63965;SDS011;50151;52.030;5.350;2022-11-15T16:40:20;5.93;;;1.98;;
63965;SDS011;50151;52.030;5.350;2022-11-15T16:45:25;3.22;;;1.08;;
63965;SDS011;50151;52.030;5.350;2022-11-15T16:47:54;4.25;;;1.40;;
63965;SDS011;50151;52.030;5.350;2022-11-15T16:50:22;12.18;;;1.98;;
63965;SDS011;50151;52.030;5.350;2022-11-15T16:52:54;7.32;;;1.33;;
63965;SDS011;50151;52.030;5.350;2022-11-15T16:55:24;2.80;;;1.25;;
63965;SDS011;50151;52.030;5.350;2022-11-15T16:57:53;7.00;;;3.13;;
63965;SDS011;50151;52.030;5.350;2022-11-15T17:00:20;6.05;;;1.77;;
63965;SDS011;50151;52.030;5.350;2022-11-15T17:02:48;8.88;;;4.32;;
63965;SDS011;50151;52.030;5.350;2022-11-15T17:05:21;6.47;;;2.67;;
63965;SDS011;50151;52.030;5.350;2022-11-15T17:07:49;4.88;;;2.03;;
63965;SDS011;50151;52.030;5.350;2022-11-15T17:10:20;6.97;;;2.30;;
63965;SDS011;50151;52.030;5.350;2022-11-15T17:12:48;7.50;;;1.60;;
63965;SDS011;50151;52.030;5.350;2022-11-15T17:15:15;4.43;;;1.30;;
63965;SDS011;50151;52.030;5.350;2022-11-15T17:17:42;5.05;;;1.63;;
63965;SDS011;50151;52.030;5.350;2022-11-15T17:20:13;4.35;;;1.77;;
63965;SDS011;50151;52.030;5.350;2022-11-15T17:22:41;6.57;;;3.70;;
63965;SDS011;50151;52.030;5.350;2022-11-15T17:25:08;6.47;;;1.92;;
63965;SDS011;50151;52.030;5.350;2022-11-15T17:27:35;6.13;;;3.00;;
63965;SDS011;50151;52.030;5.350;2022-11-15T17:30:02;3.03;;;2.00;;
63965;SDS011;50151;52.030;5.350;2022-11-15T17:32:29;4.70;;;1.63;;
63965;SDS011;50151;52.030;5.350;2022-11-15T17:34:56;5.07;;;1.90;;
63965;SDS011;50151;52.030;5.350;2022-11-15T17:37:23;3.53;;;1.58;;
63965;SDS011;50151;52.030;5.350;2022-11-15T17:39:49;7.00;;;2.00;;
63965;SDS011;50151;52.030;5.350;2022-11-15T17:42:16;5.93;;;2.47;;
63965;SDS011;50151;52.030;5.350;2022-11-15T17:44:42;12.35;;;2.55;;
63965;SDS011;50151;52.030;5.350;2022-11-15T17:47:09;4.85;;;1.90;;
63965;SDS011;50151;52.030;5.350;2022-11-15T17:49:36;5.10;;;1.73;;
63965;SDS011;50151;52.030;5.350;2022-11-15T17:52:05;2.50;;;1.55;;
63965;SDS011;50151;52.030;5.350;2022-11-15T17:54:32;10.48;;;2.90;;
63965;SDS011;50151;52.030;5.350;2022-11-15T17:56:59;3.85;;;2.38;;
63965;SDS011;50151;52.030;5.350;2022-11-15T17:59:26;5.97;;;2.50;;
63965;SDS011;50151;52.030;5.350;2022-11-15T18:01:52;5.18;;;2.45;;
63965;SDS011;50151;52.030;5.350;2022-11-15T18:04:19;4.35;;;2.35;;
63965;SDS011;50151;52.030;5.350;2022-11-15T18:06:46;11.45;;;3.08;;
63965;SDS011;50151;52.030;5.350;2022-11-15T18:09:13;6.00;;;2.60;;
63965;SDS011;50151;52.030;5.350;2022-11-15T18:11:40;7.57;;;2.88;;
63965;SDS011;50151;52.030;5.350;2022-11-15T18:14:11;5.53;;;2.50;;
63965;SDS011;50151;52.030;5.350;2022-11-15T18:16:40;4.60;;;1.83;;
63965;SDS011;50151;52.030;5.350;2022-11-15T18:19:07;5.05;;;2.55;;
63965;SDS011;50151;52.030;5.350;2022-11-15T18:21:42;6.88;;;2.50;;
63965;SDS011;50151;52.030;5.350;2022-11-15T18:24:31;4.65;;;2.20;;
63965;SDS011;50151;52.030;5.350;2022-11-15T18:27:00;6.60;;;3.03;;
63965;SDS011;50151;52.030;5.350;2022-11-15T18:29:28;8.43;;;2.90;;
63965;SDS011;50151;52.030;5.350;2022-11-15T18:31:55;7.05;;;3.20;;
63965;SDS011;50151;52.030;5.350;2022-11-15T18:34:23;7.78;;;2.67;;
63965;SDS011;50151;52.030;5.350;2022-11-15T18:36:51;4.93;;;3.65;;
63965;SDS011;50151;52.030;5.350;2022-11-15T18:39:18;4.85;;;2.90;;
63965;SDS011;50151;52.030;5.350;2022-11-15T18:41:45;4.05;;;2.25;;
63965;SDS011;50151;52.030;5.350;2022-11-15T18:44:13;6.15;;;2.83;;
63965;SDS011;50151;52.030;5.350;2022-11-15T18:46:41;7.72;;;3.20;;
63965;SDS011;50151;52.030;5.350;2022-11-15T18:49:10;8.32;;;2.97;;
63965;SDS011;50151;52.030;5.350;2022-11-15T18:51:38;6.60;;;2.80;;
63965;SDS011;50151;52.030;5.350;2022-11-15T18:54:08;8.25;;;3.22;;
63965;SDS011;50151;52.030;5.350;2022-11-15T18:56:36;5.72;;;2.60;;
63965;SDS011;50151;52.030;5.350;2022-11-15T18:59:03;4.90;;;2.72;;
63965;SDS011;50151;52.030;5.350;2022-11-15T19:01:31;4.15;;;2.33;;
63965;SDS011;50151;52.030;5.350;2022-11-15T19:04:07;6.93;;;2.97;;
63965;SDS011;50151;52.030;5.350;2022-11-15T19:06:37;4.53;;;2.65;;
63965;SDS011;50151;52.030;5.350;2022-11-15T19:09:05;7.97;;;2.83;;
63965;SDS011;50151;52.030;5.350;2022-11-15T19:11:34;6.75;;;2.83;;
63965;SDS011;50151;52.030;5.350;2022-11-15T19:14:06;4.75;;;2.78;;
63965;SDS011;50151;52.030;5.350;2022-11-15T19:16:35;4.07;;;2.97;;
63965;SDS011;50151;52.030;5.350;2022-11-15T19:19:09;3.95;;;3.10;;
63965;SDS011;50151;52.030;5.350;2022-11-15T19:21:40;8.30;;;3.05;;
63965;SDS011;50151;52.030;5.350;2022-11-15T19:24:07;6.45;;;3.60;;
63965;SDS011;50151;52.030;5.350;2022-11-15T19:26:35;5.60;;;3.08;;
63965;SDS011;50151;52.030;5.350;2022-11-15T19:29:03;7.57;;;3.33;;
63965;SDS011;50151;52.030;5.350;2022-11-15T19:31:31;8.48;;;3.40;;
63965;SDS011;50151;52.030;5.350;2022-11-15T19:33:59;7.38;;;3.20;;
63965;SDS011;50151;52.030;5.350;2022-11-15T19:36:28;4.88;;;2.83;;
63965;SDS011;50151;52.030;5.350;2022-11-15T19:38:58;4.88;;;3.10;;
63965;SDS011;50151;52.030;5.350;2022-11-15T19:41:30;5.50;;;3.55;;
63965;SDS011;50151;52.030;5.350;2022-11-15T19:43:57;7.15;;;5.45;;
63965;SDS011;50151;52.030;5.350;2022-11-15T19:46:24;10.25;;;3.47;;
63965;SDS011;50151;52.030;5.350;2022-11-15T19:48:51;6.78;;;4.00;;
63965;SDS011;50151;52.030;5.350;2022-11-15T19:51:19;6.00;;;4.65;;
63965;SDS011;50151;52.030;5.350;2022-11-15T19:53:54;14.27;;;6.53;;
63965;SDS011;50151;52.030;5.350;2022-11-15T19:56:22;6.10;;;4.45;;
63965;SDS011;50151;52.030;5.350;2022-11-15T19:58:50;8.00;;;4.65;;
63965;SDS011;50151;52.030;5.350;2022-11-15T20:01:23;8.38;;;5.07;;
63965;SDS011;50151;52.030;5.350;2022-11-15T20:03:52;9.07;;;5.95;;
63965;SDS011;50151;52.030;5.350;2022-11-15T20:06:27;10.27;;;5.32;;
63965;SDS011;50151;52.030;5.350;2022-11-15T20:08:55;6.05;;;4.00;;
63965;SDS011;50151;52.030;5.350;2022-11-15T20:11:23;6.13;;;3.97;;
63965;SDS011;50151;52.030;5.350;2022-11-15T20:13:50;6.72;;;4.07;;
63965;SDS011;50151;52.030;5.350;2022-11-15T20:16:21;5.57;;;3.67;;
63965;SDS011;50151;52.030;5.350;2022-11-15T20:18:48;7.90;;;4.38;;
63965;SDS011;50151;52.030;5.350;2022-11-15T20:21:16;4.85;;;3.55;;
63965;SDS011;50151;52.030;5.350;2022-11-15T20:23:42;6.20;;;3.80;;
63965;SDS011;50151;52.030;5.350;2022-11-15T20:26:10;5.25;;;3.67;;
63965;SDS011;50151;52.030;5.350;2022-11-15T20:28:37;10.25;;;4.55;;
63965;SDS011;50151;52.030;5.350;2022-11-15T20:31:05;6.45;;;3.83;;
63965;SDS011;50151;52.030;5.350;2022-11-15T20:33:32;7.07;;;4.45;;
63965;SDS011;50151;52.030;5.350;2022-11-15T20:36:06;4.25;;;3.40;;
63965;SDS011;50151;52.030;5.350;2022-11-15T20:38:35;4.25;;;3.70;;
63965;SDS011;50151;52.030;5.350;2022-11-15T20:41:02;8.02;;;4.18;;
63965;SDS011;50151;52.030;5.350;2022-11-15T20:43:29;5.70;;;3.92;;
63965;SDS011;50151;52.030;5.350;2022-11-15T20:45:56;7.40;;;5.18;;
63965;SDS011;50151;52.030;5.350;2022-11-15T20:48:22;4.95;;;3.70;;
63965;SDS011;50151;52.030;5.350;2022-11-15T20:50:49;7.32;;;4.40;;
63965;SDS011;50151;52.030;5.350;2022-11-15T20:53:16;7.60;;;4.18;;
63965;SDS011;50151;52.030;5.350;2022-11-15T20:55:45;5.38;;;4.20;;
63965;SDS011;50151;52.030;5.350;2022-11-15T20:58:14;6.65;;;4.18;;
63965;SDS011;50151;52.030;5.350;2022-11-15T21:00:42;4.82;;;3.85;;
63965;SDS011;50151;52.030;5.350;2022-11-15T21:03:10;8.18;;;4.30;;
63965;SDS011;50151;52.030;5.350;2022-11-15T21:05:38;9.10;;;4.25;;
63965;SDS011;50151;52.030;5.350;2022-11-15T21:08:09;7.53;;;4.40;;
63965;SDS011;50151;52.030;5.350;2022-11-15T21:10:37;6.55;;;4.72;;
63965;SDS011;50151;52.030;5.350;2022-11-15T21:13:24;7.57;;;4.57;;
63965;SDS011;50151;52.030;5.350;2022-11-15T21:15:54;7.68;;;4.85;;
63965;SDS011;50151;52.030;5.350;2022-11-15T21:18:22;7.63;;;4.50;;
63965;SDS011;50151;52.030;5.350;2022-11-15T21:20:49;6.15;;;4.80;;
63965;SDS011;50151;52.030;5.350;2022-11-15T21:23:17;9.15;;;4.68;;
